Time;durP1;ratioP1;P1;durP2;ratioP2;P2;SDS_P1;SDS_P2;PMS_P1;PMS_P2;Temp;Humidity;BMP_temperature;BMP_pressure;BME280_temperature;BME280_humidity;BME280_pressure;Samples;Min_cycle;Max_cycle;Signal;HPM_P1;HPM_P2
2024/01/06 00:00:37;;;;;;;;;8.50;8.50;;;;;;;;5068901;28;11387;-84
2024/01/06 00:03:04;;;;;;;;;4.00;4.00;;;;;;;;5071509;28;12184;-79
2024/01/06 00:05:32;;;;;;;;;9.75;7.00;;;;;;;;5064199;28;12054;-80
2024/01/06 00:08:01;;;;;;;;;7.50;7.00;;;;;;;;5074687;28;11615;-80
2024/01/06 00:10:30;;;;;;;;;9.00;8.00;;;;;;;;5063840;28;12218;-81
2024/01/06 00:13:00;;;;;;;;;7.00;7.00;;;;;;;;5072538;28;11449;-82
2024/01/06 00:15:27;;;;;;;;;3.75;3.75;;;;;;;;5071850;28;11540;-82
2024/01/06 00:17:54;;;;;;;;;3.75;3.75;;;;;;;;5060246;28;11527;-86
2024/01/06 00:20:22;;;;;;;;;7.75;7.75;;;;;;;;5061656;28;11485;-80
2024/01/06 00:22:49;;;;;;;;;8.25;8.25;;;;;;;;5070020;28;11426;-80
2024/01/06 00:25:19;;;;;;;;;7.50;7.50;;;;;;;;5071427;28;11460;-81
2024/01/06 00:27:50;;;;;;;;;8.50;8.50;;;;;;;;5070736;28;11484;-80
2024/01/06 00:30:18;;;;;;;;;8.00;7.75;;;;;;;;5070452;28;11472;-81
2024/01/06 00:32:45;;;;;;;;;8.00;8.00;;;;;;;;5070719;28;11462;-80
2024/01/06 00:35:12;;;;;;;;;13.25;9.00;;;;;;;;5071116;28;11472;-80
2024/01/06 00:37:40;;;;;;;;;10.00;10.00;;;;;;;;5071456;28;11511;-80
2024/01/06 00:40:08;;;;;;;;;11.50;11.50;;;;;;;;5070565;28;11436;-80
2024/01/06 00:42:35;;;;;;;;;11.00;11.00;;;;;;;;5070705;28;12328;-80
2024/01/06 00:45:05;;;;;;;;;11.00;11.00;;;;;;;;5069569;28;11566;-81
2024/01/06 00:47:32;;;;;;;;;11.75;11.75;;;;;;;;5070155;28;11599;-80
2024/01/06 00:49:59;;;;;;;;;16.25;15.25;;;;;;;;5069914;28;11570;-79
2024/01/06 00:52:26;;;;;;;;;8.25;8.25;;;;;;;;5071154;28;11564;-80
2024/01/06 00:54:54;;;;;;;;;12.00;12.00;;;;;;;;5070178;28;11593;-79
2024/01/06 00:57:24;;;;;;;;;14.25;14.25;;;;;;;;5070613;28;11593;-79
2024/01/06 00:59:51;;;;;;;;;14.50;13.50;;;;;;;;5070876;28;11544;-80
2024/01/06 01:02:20;;;;;;;;;11.50;11.50;;;;;;;;5070141;28;11552;-80
2024/01/06 01:04:47;;;;;;;;;14.50;11.50;;;;;;;;5070745;28;11642;-80
2024/01/06 01:07:14;;;;;;;;;18.00;14.50;;;;;;;;5071371;28;11671;-80
2024/01/06 01:09:41;;;;;;;;;15.50;13.00;;;;;;;;5071395;28;11534;-80
2024/01/06 01:12:09;;;;;;;;;15.25;13.00;;;;;;;;5072589;28;11554;-80
2024/01/06 01:14:36;;;;;;;;;16.00;13.75;;;;;;;;5074552;28;11580;-80
2024/01/06 01:17:04;;;;;;;;;16.00;16.00;;;;;;;;5072002;28;11634;-84
2024/01/06 01:19:33;;;;;;;;;13.50;13.50;;;;;;;;5073215;28;11568;-81
2024/01/06 01:22:00;;;;;;;;;14.00;12.00;;;;;;;;5067848;28;11548;-81
2024/01/06 01:24:27;;;;;;;;;12.50;12.50;;;;;;;;5065993;28;11558;-80
2024/01/06 01:26:55;;;;;;;;;15.00;14.00;;;;;;;;5068991;28;11556;-84
2024/01/06 01:29:22;;;;;;;;;11.25;11.25;;;;;;;;5065181;28;11628;-81
2024/01/06 01:31:49;;;;;;;;;12.50;12.50;;;;;;;;5058420;28;11410;-87
2024/01/06 01:34:16;;;;;;;;;12.00;12.00;;;;;;;;5071095;28;11479;-80
2024/01/06 01:36:45;;;;;;;;;12.25;11.00;;;;;;;;5072291;28;11512;-80
2024/01/06 01:39:12;;;;;;;;;9.25;8.00;;;;;;;;5072719;28;11436;-80
2024/01/06 01:41:41;;;;;;;;;10.00;10.00;;;;;;;;5059331;28;11455;-81
2024/01/06 01:44:09;;;;;;;;;14.00;11.00;;;;;;;;5067088;28;11514;-81
2024/01/06 01:46:37;;;;;;;;;13.00;11.25;;;;;;;;5069953;28;11521;-82
2024/01/06 01:49:06;;;;;;;;;12.75;11.50;;;;;;;;5067871;28;11487;-82
2024/01/06 01:51:35;;;;;;;;;10.25;10.25;;;;;;;;5068732;28;11481;-81
2024/01/06 01:54:06;;;;;;;;;12.75;11.75;;;;;;;;5069415;28;11546;-81
2024/01/06 01:56:34;;;;;;;;;12.75;12.75;;;;;;;;5068599;28;11673;-81
2024/01/06 01:59:05;;;;;;;;;12.00;11.00;;;;;;;;5071380;28;12200;-82
2024/01/06 02:01:32;;;;;;;;;12.00;11.50;;;;;;;;5069796;28;11439;-83
2024/01/06 02:03:59;;;;;;;;;13.75;12.00;;;;;;;;5069616;28;11447;-82
2024/01/06 02:06:26;;;;;;;;;13.75;12.00;;;;;;;;5067882;28;11619;-81
2024/01/06 02:08:54;;;;;;;;;14.50;12.75;;;;;;;;5067864;28;11584;-81
2024/01/06 02:11:22;;;;;;;;;10.00;10.00;;;;;;;;5067179;28;11522;-84
2024/01/06 02:13:50;;;;;;;;;12.75;11.75;;;;;;;;5069588;28;11453;-82
2024/01/06 02:16:17;;;;;;;;;9.00;9.00;;;;;;;;5069854;28;11502;-82
2024/01/06 02:18:45;;;;;;;;;14.75;13.00;;;;;;;;5074959;28;11547;-80
2024/01/06 02:21:12;;;;;;;;;12.50;9.00;;;;;;;;5088361;28;11503;-81
2024/01/06 02:23:41;;;;;;;;;12.75;8.75;;;;;;;;5070374;28;11518;-80
2024/01/06 02:26:08;;;;;;;;;8.25;8.25;;;;;;;;5070311;28;11529;-81
2024/01/06 02:28:35;;;;;;;;;9.50;9.50;;;;;;;;5069225;28;11580;-85
2024/01/06 02:31:02;;;;;;;;;5.50;5.50;;;;;;;;5068577;28;11413;-81
2024/01/06 02:33:30;;;;;;;;;10.50;8.75;;;;;;;;5069071;28;11459;-83
2024/01/06 02:35:57;;;;;;;;;8.50;8.50;;;;;;;;5067478;28;11479;-81
2024/01/06 02:38:24;;;;;;;;;10.00;8.00;;;;;;;;5068563;28;11635;-81
2024/01/06 02:40:53;;;;;;;;;8.00;8.00;;;;;;;;5068092;28;11470;-81
2024/01/06 02:43:20;;;;;;;;;8.00;8.00;;;;;;;;5066560;28;11542;-81
2024/01/06 02:45:47;;;;;;;;;10.00;7.00;;;;;;;;5065735;28;12367;-82
2024/01/06 02:48:14;;;;;;;;;8.00;6.25;;;;;;;;5067807;28;11446;-80
2024/01/06 02:50:44;;;;;;;;;6.00;6.00;;;;;;;;5069790;28;11455;-82
2024/01/06 02:53:12;;;;;;;;;5.00;5.00;;;;;;;;5069988;28;11461;-82
2024/01/06 02:55:40;;;;;;;;;6.25;6.25;;;;;;;;5070112;28;12288;-84
2024/01/06 02:58:09;;;;;;;;;6.00;6.00;;;;;;;;5067518;28;11437;-83
2024/01/06 03:00:37;;;;;;;;;6.75;6.75;;;;;;;;5071065;28;11380;-82
2024/01/06 03:03:04;;;;;;;;;5.50;5.50;;;;;;;;5069985;28;11452;-81
2024/01/06 03:05:32;;;;;;;;;6.00;5.00;;;;;;;;5062404;28;11507;-81
2024/01/06 03:08:02;;;;;;;;;9.00;6.75;;;;;;;;5067545;28;11483;-80
2024/01/06 03:10:32;;;;;;;;;10.75;7.75;;;;;;;;5070930;28;11481;-81
2024/01/06 03:12:59;;;;;;;;;8.00;8.00;;;;;;;;5067447;28;11479;-81
2024/01/06 03:15:28;;;;;;;;;8.00;6.50;;;;;;;;5065837;28;11544;-86
2024/01/06 03:17:55;;;;;;;;;7.00;7.00;;;;;;;;5066673;28;11534;-83
2024/01/06 03:20:22;;;;;;;;;11.25;6.50;;;;;;;;5070197;28;11498;-81
2024/01/06 03:22:50;;;;;;;;;7.75;7.75;;;;;;;;5069751;28;11461;-80
2024/01/06 03:25:20;;;;;;;;;7.00;7.00;;;;;;;;5070839;28;11487;-84
2024/01/06 03:27:47;;;;;;;;;12.50;6.50;;;;;;;;5071094;28;11559;-81
2024/01/06 03:30:15;;;;;;;;;8.25;8.25;;;;;;;;5069888;28;11551;-81
2024/01/06 03:32:43;;;;;;;;;8.25;8.25;;;;;;;;5066546;28;11448;-80
2024/01/06 03:35:11;;;;;;;;;10.25;10.25;;;;;;;;5069672;28;11580;-82
2024/01/06 03:37:38;;;;;;;;;15.00;11.25;;;;;;;;5070133;28;11533;-80
2024/01/06 03:40:06;;;;;;;;;12.25;12.25;;;;;;;;5071316;28;12417;-83
2024/01/06 03:42:33;;;;;;;;;15.00;13.50;;;;;;;;5064205;28;11547;-81
2024/01/06 03:45:00;;;;;;;;;13.00;10.00;;;;;;;;5068171;28;11550;-80
2024/01/06 03:47:27;;;;;;;;;13.00;11.75;;;;;;;;5070582;28;11457;-86
2024/01/06 03:49:56;;;;;;;;;5.25;5.25;;;;;;;;5075330;28;12380;-80
2024/01/06 03:52:23;;;;;;;;;12.00;9.50;;;;;;;;5062853;28;11668;-87
2024/01/06 03:54:51;;;;;;;;;11.00;8.00;;;;;;;;5072812;28;12253;-87
2024/01/06 03:57:19;;;;;;;;;9.50;7.75;;;;;;;;5058325;28;11476;-80
2024/01/06 03:59:49;;;;;;;;;8.50;8.50;;;;;;;;5071881;28;11573;-82
2024/01/06 04:02:16;;;;;;;;;9.50;9.50;;;;;;;;5071745;28;11389;-85
2024/01/06 04:04:43;;;;;;;;;7.00;6.00;;;;;;;;5071040;28;11539;-81
2024/01/06 04:07:12;;;;;;;;;3.25;2.00;;;;;;;;5070177;28;11594;-81
2024/01/06 04:09:40;;;;;;;;;9.50;9.25;;;;;;;;5070077;28;11456;-81
2024/01/06 04:12:08;;;;;;;;;8.00;8.00;;;;;;;;5069866;28;12707;-83
2024/01/06 04:14:35;;;;;;;;;13.25;9.00;;;;;;;;5071940;28;12317;-83
2024/01/06 04:17:02;;;;;;;;;9.25;9.25;;;;;;;;5060154;28;11486;-84
2024/01/06 04:19:29;;;;;;;;;11.50;11.50;;;;;;;;5071207;28;11444;-82
2024/01/06 04:21:59;;;;;;;;;7.50;7.25;;;;;;;;5073192;28;11496;-80
2024/01/06 04:24:28;;;;;;;;;10.25;8.25;;;;;;;;5071848;28;11517;-81
2024/01/06 04:26:55;;;;;;;;;7.00;7.00;;;;;;;;5070948;28;11425;-81
2024/01/06 04:29:22;;;;;;;;;9.25;6.25;;;;;;;;5069566;28;11442;-81
2024/01/06 04:31:49;;;;;;;;;11.00;11.00;;;;;;;;5070674;28;11537;-83
2024/01/06 04:34:17;;;;;;;;;9.25;7.00;;;;;;;;5070667;28;11465;-82
2024/01/06 04:36:44;;;;;;;;;4.25;3.50;;;;;;;;5071740;28;11454;-81
2024/01/06 04:39:13;;;;;;;;;7.00;7.00;;;;;;;;5071397;28;11591;-81
2024/01/06 04:41:41;;;;;;;;;6.50;3.50;;;;;;;;5071408;28;11434;-80
2024/01/06 04:44:09;;;;;;;;;5.00;5.00;;;;;;;;5060065;28;11445;-81
2024/01/06 04:46:36;;;;;;;;;9.00;7.00;;;;;;;;5069143;28;11470;-82
2024/01/06 04:49:03;;;;;;;;;5.00;5.00;;;;;;;;5061334;28;11565;-81
2024/01/06 04:51:31;;;;;;;;;6.25;6.25;;;;;;;;5061892;28;11601;-83
2024/01/06 04:53:58;;;;;;;;;7.75;5.75;;;;;;;;5078274;28;11472;-82
2024/01/06 04:56:25;;;;;;;;;6.00;6.00;;;;;;;;5076972;28;11447;-81
2024/01/06 04:58:54;;;;;;;;;5.25;5.25;;;;;;;;5078539;28;11453;-80
2024/01/06 05:01:21;;;;;;;;;5.50;5.50;;;;;;;;5076646;28;11415;-80
2024/01/06 05:03:49;;;;;;;;;1.75;1.75;;;;;;;;5073504;28;11484;-81
2024/01/06 05:06:17;;;;;;;;;1.00;1.00;;;;;;;;5080903;28;11327;-80
2024/01/06 05:08:45;;;;;;;;;0.00;0.00;;;;;;;;5076260;28;11206;-82
2024/01/06 05:11:13;;;;;;;;;2.00;0.50;;;;;;;;5073248;28;11217;-82
2024/01/06 05:13:40;;;;;;;;;0.00;0.00;;;;;;;;5071361;28;10942;-79
2024/01/06 05:16:09;;;;;;;;;0.75;0.75;;;;;;;;5074378;28;11155;-81
2024/01/06 05:18:37;;;;;;;;;0.00;0.00;;;;;;;;5063148;28;10961;-86
2024/01/06 05:21:04;;;;;;;;;1.00;1.00;;;;;;;;5068859;28;11901;-81
2024/01/06 05:23:32;;;;;;;;;1.00;1.00;;;;;;;;5057226;28;11078;-82
2024/01/06 05:26:00;;;;;;;;;1.50;0.50;;;;;;;;5057521;28;10989;-82
2024/01/06 05:28:30;;;;;;;;;0.75;0.75;;;;;;;;5066637;28;11620;-80
2024/01/06 05:30:57;;;;;;;;;1.00;1.00;;;;;;;;5069238;28;10901;-83
2024/01/06 05:33:26;;;;;;;;;1.00;1.00;;;;;;;;5063038;28;11036;-81
2024/01/06 05:35:53;;;;;;;;;0.75;0.75;;;;;;;;5069691;28;11186;-80
2024/01/06 05:38:20;;;;;;;;;2.00;2.00;;;;;;;;5065414;28;11577;-81
2024/01/06 05:40:48;;;;;;;;;2.00;1.00;;;;;;;;5059905;28;10893;-86
2024/01/06 05:43:15;;;;;;;;;2.00;0.00;;;;;;;;5072975;28;10917;-87
2024/01/06 05:45:42;;;;;;;;;2.00;0.00;;;;;;;;5070451;28;10738;-82
2024/01/06 05:48:10;;;;;;;;;1.00;1.00;;;;;;;;5069590;28;10865;-83
2024/01/06 05:50:40;;;;;;;;;0.25;0.25;;;;;;;;5062892;28;10895;-82
2024/01/06 05:53:08;;;;;;;;;1.00;1.00;;;;;;;;5063676;28;11015;-83
2024/01/06 05:55:35;;;;;;;;;1.00;1.00;;;;;;;;5058005;28;10925;-83
2024/01/06 05:58:02;;;;;;;;;1.00;1.00;;;;;;;;5066841;28;10946;-82
2024/01/06 06:00:31;;;;;;;;;1.00;1.00;;;;;;;;5067670;28;11638;-81
2024/01/06 06:02:58;;;;;;;;;0.25;0.25;;;;;;;;5069156;28;10962;-82
2024/01/06 06:05:26;;;;;;;;;1.25;1.25;;;;;;;;5070009;28;10868;-81
2024/01/06 06:07:54;;;;;;;;;1.00;1.00;;;;;;;;5067849;28;11023;-82
2024/01/06 06:10:22;;;;;;;;;0.00;0.00;;;;;;;;5068843;28;10790;-83
2024/01/06 06:12:51;;;;;;;;;0.00;0.00;;;;;;;;5068056;28;10946;-84
2024/01/06 06:15:21;;;;;;;;;0.00;0.00;;;;;;;;5069106;28;10822;-87
2024/01/06 06:17:51;;;;;;;;;1.00;0.00;;;;;;;;5067855;28;10926;-86
2024/01/06 06:20:19;;;;;;;;;0.00;0.00;;;;;;;;5069914;28;10890;-80
2024/01/06 06:22:46;;;;;;;;;0.00;0.00;;;;;;;;5069381;28;10884;-85
2024/01/06 06:25:15;;;;;;;;;0.00;0.00;;;;;;;;5068383;28;11006;-80
2024/01/06 06:27:42;;;;;;;;;0.00;0.00;;;;;;;;5068224;28;11659;-83
2024/01/06 06:30:10;;;;;;;;;0.00;0.00;;;;;;;;5068458;28;10905;-82
2024/01/06 06:32:38;;;;;;;;;0.00;0.00;;;;;;;;5069444;28;11006;-81
2024/01/06 06:35:06;;;;;;;;;0.00;0.00;;;;;;;;5069610;28;10868;-88
2024/01/06 06:37:33;;;;;;;;;0.00;0.00;;;;;;;;5066930;28;11050;-80
2024/01/06 06:40:01;;;;;;;;;0.00;0.00;;;;;;;;5069574;28;11259;-81
2024/01/06 06:42:30;;;;;;;;;0.00;0.00;;;;;;;;5074708;28;10973;-79
2024/01/06 06:44:57;;;;;;;;;0.00;0.00;;;;;;;;5071231;28;11131;-79
2024/01/06 06:47:24;;;;;;;;;0.75;0.75;;;;;;;;5076285;28;11099;-80
2024/01/06 06:49:52;;;;;;;;;0.00;0.00;;;;;;;;5074716;28;11444;-80
2024/01/06 06:52:19;;;;;;;;;0.00;0.00;;;;;;;;5064104;28;11136;-80
2024/01/06 06:54:48;;;;;;;;;0.00;0.00;;;;;;;;5076572;28;11113;-79
2024/01/06 06:57:15;;;;;;;;;0.00;0.00;;;;;;;;5076223;28;11025;-80
2024/01/06 06:59:46;;;;;;;;;0.00;0.00;;;;;;;;5068143;28;11065;-87
2024/01/06 07:02:13;;;;;;;;;3.00;0.00;;;;;;;;5068456;28;11083;-84
2024/01/06 07:04:41;;;;;;;;;0.00;0.00;;;;;;;;5074606;28;11164;-80
2024/01/06 07:07:11;;;;;;;;;0.00;0.00;;;;;;;;5071599;28;11128;-79
2024/01/06 07:09:38;;;;;;;;;1.25;0.00;;;;;;;;5073047;28;11025;-85
2024/01/06 07:12:06;;;;;;;;;1.00;1.00;;;;;;;;5073012;28;10965;-85
2024/01/06 07:14:33;;;;;;;;;1.00;0.00;;;;;;;;5071035;28;11051;-86
2024/01/06 07:17:02;;;;;;;;;0.00;0.00;;;;;;;;5073483;28;11101;-81
2024/01/06 07:19:35;;;;;;;;;0.00;0.00;;;;;;;;5074405;28;10959;-80
2024/01/06 07:22:03;;;;;;;;;0.00;0.00;;;;;;;;5072092;28;10818;-82
2024/01/06 07:24:30;;;;;;;;;0.00;0.00;;;;;;;;5067215;28;10941;-80
2024/01/06 07:26:57;;;;;;;;;0.00;0.00;;;;;;;;5073186;28;11138;-81
2024/01/06 07:29:24;;;;;;;;;0.00;0.00;;;;;;;;5070842;28;11046;-81
2024/01/06 07:31:51;;;;;;;;;2.00;0.00;;;;;;;;5073917;28;10848;-80
2024/01/06 07:34:23;;;;;;;;;0.75;0.00;;;;;;;;5072384;28;11023;-82
2024/01/06 07:36:50;;;;;;;;;0.00;0.00;;;;;;;;5068440;28;10838;-85
2024/01/06 07:39:17;;;;;;;;;0.00;0.00;;;;;;;;5069447;28;11663;-83
2024/01/06 07:41:46;;;;;;;;;0.00;0.00;;;;;;;;5070757;28;10938;-81
2024/01/06 07:44:13;;;;;;;;;1.25;1.25;;;;;;;;5068861;28;10875;-84
2024/01/06 07:46:41;;;;;;;;;1.00;1.00;;;;;;;;5072912;28;10965;-86
2024/01/06 07:49:08;;;;;;;;;0.50;0.50;;;;;;;;5091130;28;10870;-82
2024/01/06 07:51:37;;;;;;;;;3.00;2.00;;;;;;;;5079208;28;11160;-79
2024/01/06 07:54:06;;;;;;;;;1.00;1.00;;;;;;;;5072984;28;11076;-80
2024/01/06 07:56:33;;;;;;;;;1.00;1.00;;;;;;;;5072762;28;11123;-82
2024/01/06 07:59:00;;;;;;;;;1.25;1.25;;;;;;;;5071333;28;11077;-84
2024/01/06 08:01:30;;;;;;;;;3.00;3.00;;;;;;;;5071050;28;11122;-81
2024/01/06 08:03:57;;;;;;;;;2.00;2.00;;;;;;;;5072187;28;10970;-81
2024/01/06 08:06:25;;;;;;;;;2.00;2.00;;;;;;;;5069657;28;11241;-80
2024/01/06 08:08:54;;;;;;;;;3.50;2.00;;;;;;;;5071404;28;11955;-82
2024/01/06 08:11:22;;;;;;;;;4.00;2.50;;;;;;;;5071387;28;11038;-81
2024/01/06 08:13:49;;;;;;;;;1.00;1.00;;;;;;;;5071917;28;11729;-86
2024/01/06 08:16:16;;;;;;;;;0.25;0.25;;;;;;;;5075804;28;11047;-83
2024/01/06 08:18:44;;;;;;;;;3.00;3.00;;;;;;;;5077366;28;10832;-81
2024/01/06 08:21:12;;;;;;;;;2.00;1.50;;;;;;;;5072164;28;11119;-81
2024/01/06 08:23:39;;;;;;;;;0.75;0.75;;;;;;;;5074329;28;10958;-80
2024/01/06 08:26:08;;;;;;;;;2.50;1.25;;;;;;;;5070801;28;11031;-79
2024/01/06 08:28:35;;;;;;;;;4.00;1.00;;;;;;;;5072594;28;11026;-81
2024/01/06 08:31:02;;;;;;;;;1.00;1.00;;;;;;;;5073678;28;10955;-77
2024/01/06 08:33:32;;;;;;;;;1.50;1.50;;;;;;;;5072945;28;10962;-78
2024/01/06 08:35:59;;;;;;;;;5.75;2.00;;;;;;;;5073177;28;11127;-79
2024/01/06 08:38:27;;;;;;;;;2.00;2.00;;;;;;;;5074143;28;11154;-81
2024/01/06 08:40:54;;;;;;;;;1.00;1.00;;;;;;;;5074902;28;11158;-78
2024/01/06 08:43:25;;;;;;;;;1.00;1.00;;;;;;;;5065601;28;10975;-82
2024/01/06 08:45:52;;;;;;;;;1.25;1.25;;;;;;;;5073437;28;10876;-74
2024/01/06 08:48:19;;;;;;;;;1.00;1.00;;;;;;;;5069559;28;10963;-84
2024/01/06 08:50:47;;;;;;;;;1.75;1.75;;;;;;;;5069969;28;10882;-80
2024/01/06 08:53:17;;;;;;;;;1.75;1.00;;;;;;;;5071997;28;11052;-84
2024/01/06 08:55:44;;;;;;;;;1.50;1.50;;;;;;;;5073949;28;10914;-84
2024/01/06 08:58:11;;;;;;;;;1.00;1.00;;;;;;;;5072664;28;11107;-81
2024/01/06 09:00:39;;;;;;;;;3.50;1.00;;;;;;;;5060589;28;11621;-85
2024/01/06 09:03:07;;;;;;;;;1.00;1.00;;;;;;;;5068481;28;10804;-86
2024/01/06 09:05:37;;;;;;;;;2.00;0.75;;;;;;;;5068547;28;10724;-81
2024/01/06 09:08:05;;;;;;;;;0.00;0.00;;;;;;;;5070672;28;10675;-84
2024/01/06 09:10:32;;;;;;;;;0.00;0.00;;;;;;;;5069866;28;10595;-78
2024/01/06 09:13:00;;;;;;;;;0.00;0.00;;;;;;;;5069681;28;10605;-78
2024/01/06 09:15:27;;;;;;;;;0.00;0.00;;;;;;;;5071576;28;10669;-76
2024/01/06 09:17:58;;;;;;;;;0.00;0.00;;;;;;;;5068444;28;10765;-75
2024/01/06 09:20:25;;;;;;;;;0.00;0.00;;;;;;;;5069639;28;10603;-78
2024/01/06 09:22:52;;;;;;;;;0.00;0.00;;;;;;;;5057399;28;10711;-78
2024/01/06 09:25:23;;;;;;;;;1.00;0.00;;;;;;;;5070655;28;10825;-77
2024/01/06 09:27:51;;;;;;;;;0.00;0.00;;;;;;;;5048652;28;10735;-77
2024/01/06 09:30:18;;;;;;;;;0.00;0.00;;;;;;;;5064517;28;10789;-74
2024/01/06 09:32:46;;;;;;;;;0.00;0.00;;;;;;;;5069324;28;10602;-78
2024/01/06 09:35:17;;;;;;;;;0.00;0.00;;;;;;;;5069143;28;11348;-76
2024/01/06 09:37:44;;;;;;;;;0.00;0.00;;;;;;;;5065542;28;10550;-79
2024/01/06 09:40:14;;;;;;;;;0.00;0.00;;;;;;;;5064632;28;10613;-77
2024/01/06 09:42:41;;;;;;;;;1.50;0.00;;;;;;;;5069073;28;10708;-76
2024/01/06 09:45:09;;;;;;;;;0.00;0.00;;;;;;;;5068640;28;10678;-82
2024/01/06 09:47:37;;;;;;;;;0.00;0.00;;;;;;;;5059879;28;10513;-79
2024/01/06 09:50:05;;;;;;;;;0.00;0.00;;;;;;;;5059477;28;10610;-81
2024/01/06 09:52:34;;;;;;;;;0.00;0.00;;;;;;;;5062621;28;10604;-82
2024/01/06 09:55:05;;;;;;;;;0.00;0.00;;;;;;;;5055085;28;10564;-82
2024/01/06 09:57:34;;;;;;;;;0.00;0.00;;;;;;;;5061776;28;10593;-81
2024/01/06 10:00:01;;;;;;;;;0.00;0.00;;;;;;;;5055365;28;10614;-77
2024/01/06 10:02:31;;;;;;;;;0.00;0.00;;;;;;;;5060341;28;10674;-79
2024/01/06 10:04:58;;;;;;;;;0.00;0.00;;;;;;;;5053340;28;10775;-82
2024/01/06 10:07:28;;;;;;;;;1.00;1.00;;;;;;;;5062014;28;10667;-79
2024/01/06 10:09:57;;;;;;;;;1.00;0.00;;;;;;;;5058453;28;11378;-78
2024/01/06 10:12:28;;;;;;;;;0.00;0.00;;;;;;;;5058891;28;10595;-73
2024/01/06 10:14:55;;;;;;;;;0.00;0.00;;;;;;;;5054002;28;10788;-74
2024/01/06 10:17:23;;;;;;;;;0.00;0.00;;;;;;;;5054705;28;10843;-81
2024/01/06 10:19:52;;;;;;;;;0.00;0.00;;;;;;;;5056383;28;10599;-75
2024/01/06 10:22:19;;;;;;;;;0.00;0.00;;;;;;;;5068548;28;10581;-75
2024/01/06 10:24:47;;;;;;;;;0.00;0.00;;;;;;;;5067056;28;10604;-77
2024/01/06 10:27:16;;;;;;;;;2.00;0.00;;;;;;;;5077432;28;10653;-76
2024/01/06 10:29:43;;;;;;;;;0.00;0.00;;;;;;;;5065931;28;10582;-79
2024/01/06 10:32:10;;;;;;;;;0.00;0.00;;;;;;;;5076393;28;10462;-78
2024/01/06 10:34:38;;;;;;;;;0.00;0.00;;;;;;;;5074291;28;10622;-72
2024/01/06 10:37:06;;;;;;;;;0.00;0.00;;;;;;;;5069429;28;11310;-73
2024/01/06 10:39:33;;;;;;;;;0.00;0.00;;;;;;;;5070764;28;10620;-78
2024/01/06 10:42:01;;;;;;;;;0.25;0.25;;;;;;;;5066576;28;10633;-76
2024/01/06 10:44:33;;;;;;;;;0.00;0.00;;;;;;;;5070918;28;11293;-80
2024/01/06 10:47:01;;;;;;;;;0.00;0.00;;;;;;;;5070458;28;10579;-82
2024/01/06 10:49:29;;;;;;;;;0.00;0.00;;;;;;;;5068678;28;10512;-81
2024/01/06 10:51:58;;;;;;;;;1.00;0.00;;;;;;;;5067247;28;10449;-81
2024/01/06 10:54:26;;;;;;;;;1.00;1.00;;;;;;;;5068339;28;10462;-80
2024/01/06 10:56:54;;;;;;;;;0.00;0.00;;;;;;;;5067879;28;10534;-77
2024/01/06 10:59:24;;;;;;;;;3.00;2.00;;;;;;;;5068244;28;10527;-80
2024/01/06 11:01:54;;;;;;;;;0.00;0.00;;;;;;;;5066787;28;10709;-81
2024/01/06 11:04:22;;;;;;;;;0.00;0.00;;;;;;;;5067165;28;10521;-82
2024/01/06 11:06:50;;;;;;;;;0.00;0.00;;;;;;;;5068342;28;10455;-80
2024/01/06 11:09:22;;;;;;;;;1.00;0.00;;;;;;;;5068088;28;10564;-82
2024/01/06 11:11:50;;;;;;;;;1.50;0.00;;;;;;;;5057850;28;10373;-82
2024/01/06 11:14:20;;;;;;;;;1.00;1.00;;;;;;;;5068275;28;10318;-81
2024/01/06 11:16:47;;;;;;;;;1.00;1.00;;;;;;;;5067944;28;10595;-77
2024/01/06 11:19:44;;;;;;;;;0.00;0.00;;;;;;;;5067672;28;10731;-82
2024/01/06 11:22:24;;;;;;;;;0.00;0.00;;;;;;;;5067955;28;10438;-78
2024/01/06 11:24:52;;;;;;;;;2.75;2.00;;;;;;;;5065121;28;10516;-78
2024/01/06 11:27:20;;;;;;;;;2.00;2.00;;;;;;;;5067072;28;10736;-75
2024/01/06 11:29:47;;;;;;;;;0.00;0.00;;;;;;;;5066977;28;10623;-78
2024/01/06 11:32:20;;;;;;;;;0.00;0.00;;;;;;;;5062955;28;10331;-76
2024/01/06 11:34:52;;;;;;;;;0.75;0.75;;;;;;;;5067260;28;10389;-78
2024/01/06 11:37:26;;;;;;;;;1.00;0.00;;;;;;;;5067839;28;10387;-76
2024/01/06 11:39:54;;;;;;;;;0.50;0.50;;;;;;;;5063162;28;10370;-75
2024/01/06 11:42:21;;;;;;;;;0.00;0.00;;;;;;;;5067730;28;10554;-76
2024/01/06 11:44:52;;;;;;;;;0.00;0.00;;;;;;;;5064283;28;10438;-79
2024/01/06 11:47:23;;;;;;;;;0.00;0.00;;;;;;;;5056132;28;10456;-79
2024/01/06 11:49:55;;;;;;;;;4.50;3.00;;;;;;;;5066906;28;10464;-77
2024/01/06 11:52:23;;;;;;;;;0.00;0.00;;;;;;;;5056747;28;10688;-78
2024/01/06 11:54:50;;;;;;;;;0.00;0.00;;;;;;;;5067341;28;10390;-77
2024/01/06 11:57:17;;;;;;;;;0.50;0.50;;;;;;;;5071882;28;10315;-78
2024/01/06 11:59:45;;;;;;;;;1.00;1.00;;;;;;;;5068332;28;10504;-77
2024/01/06 12:02:13;;;;;;;;;1.00;1.00;;;;;;;;5071885;28;10289;-78
2024/01/06 12:04:41;;;;;;;;;1.00;1.00;;;;;;;;5073520;28;10334;-80
2024/01/06 12:07:13;;;;;;;;;1.50;1.50;;;;;;;;5075042;28;10369;-78
2024/01/06 12:09:40;;;;;;;;;3.25;2.50;;;;;;;;5074179;28;10465;-81
2024/01/06 12:12:09;;;;;;;;;3.00;2.00;;;;;;;;5075930;28;10699;-80
2024/01/06 12:14:37;;;;;;;;;2.75;2.75;;;;;;;;5074348;28;10477;-75
2024/01/06 12:17:05;;;;;;;;;1.50;1.25;;;;;;;;5067038;28;10578;-78
2024/01/06 12:19:34;;;;;;;;;1.00;1.00;;;;;;;;5069777;28;10362;-79
2024/01/06 12:22:02;;;;;;;;;1.00;1.00;;;;;;;;5070113;28;10366;-79
2024/01/06 12:24:33;;;;;;;;;1.50;0.25;;;;;;;;5058719;28;10384;-74
2024/01/06 12:27:01;;;;;;;;;7.00;7.00;;;;;;;;5058585;28;10149;-80
2024/01/06 12:29:31;;;;;;;;;6.50;6.50;;;;;;;;5069176;28;10668;-84
2024/01/06 12:32:00;;;;;;;;;22.75;22.75;;;;;;;;5059496;28;10558;-77
2024/01/06 12:34:27;;;;;;;;;5.50;5.50;;;;;;;;5072250;28;11288;-80
2024/01/06 12:36:56;;;;;;;;;14.00;13.75;;;;;;;;5056435;28;10481;-79
2024/01/06 12:39:24;;;;;;;;;9.50;7.25;;;;;;;;5071152;28;10868;-80
2024/01/06 12:41:53;;;;;;;;;6.75;6.00;;;;;;;;5064423;28;10606;-84
2024/01/06 12:44:21;;;;;;;;;2.00;2.00;;;;;;;;5064309;28;10875;-79
2024/01/06 12:46:48;;;;;;;;;3.75;2.25;;;;;;;;5071184;28;10417;-77
2024/01/06 12:49:16;;;;;;;;;1.00;1.00;;;;;;;;5056683;28;10704;-82
2024/01/06 12:51:43;;;;;;;;;1.00;1.00;;;;;;;;5068875;28;10468;-81
2024/01/06 12:54:11;;;;;;;;;2.00;2.00;;;;;;;;5073154;28;10490;-78
2024/01/06 12:56:38;;;;;;;;;0.00;0.00;;;;;;;;5074363;28;10600;-81
2024/01/06 12:59:07;;;;;;;;;0.75;0.75;;;;;;;;5073862;28;10446;-82
2024/01/06 13:01:34;;;;;;;;;0.00;0.00;;;;;;;;5069987;28;10542;-84
2024/01/06 13:04:01;;;;;;;;;4.00;2.50;;;;;;;;5069544;28;10657;-81
2024/01/06 13:06:31;;;;;;;;;1.00;1.00;;;;;;;;5070107;28;10679;-84
2024/01/06 13:09:02;;;;;;;;;1.00;1.00;;;;;;;;5069969;28;10443;-82
2024/01/06 13:11:32;;;;;;;;;0.00;0.00;;;;;;;;5072739;28;10593;-74
2024/01/06 13:14:00;;;;;;;;;2.75;2.75;;;;;;;;5082733;28;10533;-73
2024/01/06 13:16:29;;;;;;;;;11.25;9.75;;;;;;;;5092262;28;11471;-84
2024/01/06 13:18:56;;;;;;;;;22.50;22.50;;;;;;;;5069768;28;10928;-77
2024/01/06 13:21:24;;;;;;;;;4.00;2.25;;;;;;;;5071217;28;11506;-81
2024/01/06 13:23:51;;;;;;;;;24.00;24.00;;;;;;;;5070210;28;10798;-81
2024/01/06 13:26:18;;;;;;;;;26.75;25.75;;;;;;;;5069399;28;11608;-82
2024/01/06 13:28:45;;;;;;;;;28.50;28.50;;;;;;;;5069104;28;11631;-74
2024/01/06 13:31:13;;;;;;;;;14.00;14.00;;;;;;;;5068811;28;11428;-81
2024/01/06 13:33:41;;;;;;;;;9.50;9.50;;;;;;;;5066132;28;11199;-79
2024/01/06 13:36:09;;;;;;;;;8.00;8.00;;;;;;;;5069831;28;10959;-81
2024/01/06 13:38:38;;;;;;;;;6.25;5.00;;;;;;;;5066785;28;11898;-78
2024/01/06 13:41:07;;;;;;;;;10.50;10.50;;;;;;;;5069569;28;10848;-76
2024/01/06 13:43:34;;;;;;;;;1.25;1.25;;;;;;;;5068750;28;11156;-83
2024/01/06 13:46:02;;;;;;;;;1.00;1.00;;;;;;;;5069850;28;10688;-84
2024/01/06 13:48:32;;;;;;;;;1.00;1.00;;;;;;;;5072275;28;10674;-81
2024/01/06 13:51:01;;;;;;;;;6.50;6.50;;;;;;;;5070129;28;10764;-83
2024/01/06 13:53:31;;;;;;;;;1.50;1.50;;;;;;;;5072183;28;11075;-82
2024/01/06 13:56:02;;;;;;;;;1.25;1.25;;;;;;;;5074895;28;10859;-82
2024/01/06 13:58:29;;;;;;;;;1.00;1.00;;;;;;;;5073225;28;10593;-76
2024/01/06 14:00:57;;;;;;;;;4.00;4.00;;;;;;;;5075735;28;10577;-86
2024/01/06 14:03:24;;;;;;;;;0.25;0.25;;;;;;;;5067064;28;10828;-84
2024/01/06 14:05:53;;;;;;;;;1.75;1.75;;;;;;;;5070539;28;10531;-77
2024/01/06 14:08:22;;;;;;;;;2.75;2.75;;;;;;;;5072552;28;10775;-79
2024/01/06 14:10:49;;;;;;;;;5.00;5.00;;;;;;;;5058089;28;10768;-78
2024/01/06 14:13:16;;;;;;;;;5.25;3.00;;;;;;;;5063682;28;10880;-83
2024/01/06 14:15:43;;;;;;;;;8.25;6.00;;;;;;;;5064043;28;10861;-84
2024/01/06 14:18:12;;;;;;;;;6.25;5.50;;;;;;;;5071270;28;10927;-78
2024/01/06 14:20:40;;;;;;;;;1.00;1.00;;;;;;;;5061351;28;10948;-74
2024/01/06 14:23:09;;;;;;;;;1.00;1.00;;;;;;;;5067926;28;10606;-77
2024/01/06 14:25:38;;;;;;;;;2.50;2.00;;;;;;;;5054665;28;10449;-82
2024/01/06 14:28:06;;;;;;;;;3.75;2.50;;;;;;;;5051843;28;10823;-79
2024/01/06 14:30:34;;;;;;;;;2.75;2.75;;;;;;;;5052929;28;10698;-81
2024/01/06 14:33:01;;;;;;;;;1.00;1.00;;;;;;;;5069318;28;10784;-77
2024/01/06 14:35:29;;;;;;;;;1.00;1.00;;;;;;;;5054892;28;10787;-74
2024/01/06 14:37:56;;;;;;;;;1.00;1.00;;;;;;;;5061075;28;10377;-85
2024/01/06 14:40:25;;;;;;;;;1.00;1.00;;;;;;;;5057914;28;10460;-84
2024/01/06 14:42:53;;;;;;;;;3.75;3.75;;;;;;;;5066158;28;10526;-82